Kedves Pilóták, Oktatók, Növendékek!

Az alábbi menüpontban szeretnénk összefoglalni néhány fontos és hasznos információt, linket, amely segíthet a repülések megtervezésében.

Ha bármilyen javaslatod van a tartalommal kapcsolatban, kérlek Ez az e-mail-cím a szpemrobotok elleni védelem alatt áll. Megtekintéséhez engedélyeznie kell a JavaScript használatát.meg nekünk.

 

Jó leszállást!

Repüléssel kapcsolatos hírek

2018. december 17.

IHO.hu - - Repülés RSS

Felhőkép 

Felhőkép

Széltérkép

Széltérkép

Győr-Pér Repülőtér

Élő webkamera kép

 Nagyobb kép

Győr-Pér Repülőtér

[Source: ADDS]
METAR
LHPR 171715Z AUTO 28005KT 7000 OVC017 M01/M03 Q1026 RMK WHT =
LHPR 171715Z 1718/1803 27005KT 7000 OVC015 BECMG 1718/1721 VRB02KT 3000 BR OVC010 BECMG 1721/1724 1500 FZBCFG BR OVC005 TEMPO 1800/1803 0500 FZFG VV001
TAF
LHPR 171715Z 1718/1803 27005KT 7000 OVC015 BECMG 1718/1721 VRB02KT 3000 BR OVC010 BECMG 1721/1724 1500 FZBCFG BR OVC005 TEMPO 1800/1803 0500 FZFG VV001 =
SR / SS: 06:31 / 14:58 UTC (Napkelte / Napnyugta 2018-12-17)

Kapcsolat

Telephely:     9099 Pér, Repülõtér

Klubhelyiség: 9021 Gyõr, Városház tér 3.

E-mail: info@aeroclub-gyor.hu

Telefon: 06-20-777-9106

Adószám: 19113832-2-08

  
Joomla űrlapépítő by JoomlaShine
JSN Metro template designed by JoomlaShine.com